Time;durP1;ratioP1;P1;durP2;ratioP2;P2;SDS_P1;SDS_P2;PMS_P1;PMS_P2;Temp;Humidity;BMP_temperature;BMP_pressure;BME280_temperature;BME280_humidity;BME280_pressure;Samples;Min_cycle;Max_cycle;Signal;HPM_P1;HPM_P2
2021/05/25 00:00:11;;;;;;;5.60;2.87;;;;;;;-144.99;96.11;52323.75;5066942;28;20270;-65
2021/05/25 00:02:38;;;;;;;6.37;3.43;;;;;;;-144.99;96.09;52260.56;5067754;28;20213;-63
2021/05/25 00:05:08;;;;;;;2.60;2.30;;;;;;;-144.99;96.00;52301.34;5065140;28;20315;-62
2021/05/25 00:07:35;;;;;;;7.87;3.40;;;;;;;-144.99;96.31;52313.56;5064902;28;20225;-62
2021/05/25 00:10:07;;;;;;;3.57;3.00;;;;;;;-144.99;96.52;52297.25;5063209;28;20670;-60
2021/05/25 00:12:37;;;;;;;4.47;2.70;;;;;;;-144.99;96.60;52325.81;5064800;28;20215;-57
2021/05/25 00:15:06;;;;;;;4.30;3.33;;;;;;;-144.99;96.99;52303.38;5064135;28;20782;-57
2021/05/25 00:17:35;;;;;;;4.23;2.97;;;;;;;-144.99;96.89;52299.31;5064043;28;20246;-58
2021/05/25 00:20:03;;;;;;;5.40;2.77;;;;;;;-144.99;97.02;52333.94;5064975;28;20826;-57
2021/05/25 00:22:29;;;;;;;5.13;3.40;;;;;;;-144.99;97.10;52313.56;5066337;28;20209;-57
2021/05/25 00:24:55;;;;;;;11.10;5.77;;;;;;;-144.99;97.29;52370.63;4713293;28;10000007;-57
2021/05/25 00:27:24;;;;;;;5.37;3.57;;;;;;;-144.99;97.38;52309.50;5066266;28;20216;-57
2021/05/25 00:29:53;;;;;;;6.50;3.27;;;;;;;-144.99;97.23;52319.69;5059723;28;20807;-57
2021/05/25 00:32:22;;;;;;;6.87;2.90;;;;;;;-144.99;97.03;52333.94;5065550;28;20220;-60
2021/05/25 00:34:52;;;;;;;5.03;3.57;;;;;;;-144.99;96.99;52313.56;5058154;28;20229;-60
2021/05/25 00:37:18;;;;;;;3.50;2.97;;;;;;;-144.99;97.05;52301.34;5066422;28;20724;-59
2021/05/25 00:39:44;;;;;;;3.23;2.60;;;;;;;-144.99;97.06;52297.25;5068202;28;20215;-61
2021/05/25 00:42:10;;;;;;;5.50;2.40;;;;;;;-144.99;97.14;52321.72;5068015;28;20699;-60
2021/05/25 00:44:39;;;;;;;2.83;2.30;;;;;;;-144.99;96.96;52313.56;5066910;28;20201;-63
2021/05/25 00:47:08;;;;;;;4.40;2.57;;;;;;;-144.99;97.06;52303.38;5068510;28;20261;-63
2021/05/25 00:49:37;;;;;;;6.77;4.97;;;;;;;-144.99;96.91;52301.34;5069469;28;20232;-62
2021/05/25 00:52:08;;;;;;;4.80;3.10;;;;;;;-144.99;97.04;52305.41;5070174;28;21918;-63
2021/05/25 00:54:34;;;;;;;7.43;3.97;;;;;;;-144.99;97.39;52305.41;5068288;28;20229;-60
2021/05/25 00:57:04;;;;;;;5.00;3.10;;;;;;;-144.99;97.25;52325.81;5067927;28;20256;-60
2021/05/25 00:59:30;;;;;;;7.63;3.03;;;;;;;-144.99;97.31;52317.66;5071143;28;20534;-61
2021/05/25 01:01:56;;;;;;;4.10;2.53;;;;;;;-144.99;97.18;52297.25;5073958;28;20211;-64
2021/05/25 01:04:25;;;;;;;5.20;2.53;;;;;;;-144.99;97.34;52342.09;5072073;28;20227;-62
2021/05/25 01:06:54;;;;;;;4.10;2.83;;;;;;;-144.99;97.51;52346.19;5065533;28;20225;-62
2021/05/25 01:09:21;;;;;;;8.87;3.70;;;;;;;-144.99;97.31;52309.50;5073115;28;20308;-63
2021/05/25 01:11:51;;;;;;;5.00;3.30;;;;;;;-144.99;97.20;52289.13;5072791;28;20244;-62
2021/05/25 01:14:19;;;;;;;5.07;3.50;;;;;;;-144.99;97.39;52309.50;5070506;28;20620;-62
2021/05/25 01:16:45;;;;;;;4.63;3.63;;;;;;;-144.99;97.43;52319.69;5072126;28;20324;-63
2021/05/25 01:19:11;;;;;;;6.83;4.67;;;;;;;-144.99;97.88;52338.03;5072437;28;20655;-62
2021/05/25 01:21:41;;;;;;;6.43;5.17;;;;;;;-144.99;97.74;52301.34;5071669;28;20269;-62
2021/05/25 01:24:11;;;;;;;7.27;6.57;;;;;;;-144.99;98.53;52321.72;5071747;28;20292;-62
2021/05/25 01:26:40;;;;;;;7.03;5.57;;;;;;;-144.99;98.44;52317.66;5070722;28;20211;-62
2021/05/25 01:29:09;;;;;;;8.57;6.37;;;;;;;-144.99;98.39;52333.94;5072697;28;20209;-64
2021/05/25 01:31:35;;;;;;;12.40;6.23;;;;;;;-144.99;98.63;52342.09;5071012;28;20627;-62
2021/05/25 01:34:06;;;;;;;10.47;7.67;;;;;;;-144.99;98.68;52293.19;5072206;28;20224;-62
2021/05/25 01:36:35;;;;;;;7.20;6.40;;;;;;;-144.99;98.94;52301.34;5068536;28;20235;-62
2021/05/25 01:39:02;;;;;;;9.17;6.60;;;;;;;-144.99;99.24;52272.81;5072447;28;20565;-61
2021/05/25 01:41:31;;;;;;;9.20;6.40;;;;;;;-144.99;99.08;52329.88;5073215;28;20216;-62
2021/05/25 01:43:57;;;;;;;8.27;5.53;;;;;;;-144.99;99.10;52268.72;5073580;28;20193;-61
2021/05/25 01:46:27;;;;;;;6.57;5.37;;;;;;;-144.99;99.13;52321.72;5074126;28;20205;-63
2021/05/25 01:48:56;;;;;;;6.83;4.37;;;;;;;-144.99;98.91;52297.25;5072644;28;20208;-64
2021/05/25 01:51:22;;;;;;;6.73;4.10;;;;;;;-144.99;98.96;52342.09;5073361;28;20218;-63
2021/05/25 01:53:48;;;;;;;6.23;4.73;;;;;;;-144.99;98.53;52323.75;5069877;28;20201;-63
2021/05/25 01:56:16;;;;;;;9.33;3.93;;;;;;;-144.99;98.34;52301.34;5069989;28;20663;-63
2021/05/25 01:58:46;;;;;;;8.53;3.20;;;;;;;-144.99;98.20;52338.03;5071414;28;20204;-64
2021/05/25 02:01:16;;;;;;;6.73;3.70;;;;;;;-144.99;98.35;52305.41;5070691;28;20678;-64
2021/05/25 02:03:42;;;;;;;8.90;3.80;;;;;;;-144.99;98.25;52325.81;5071445;28;20231;-63
2021/05/25 02:06:09;;;;;;;4.67;2.70;;;;;;;-144.99;97.90;52329.88;5069133;28;20201;-62
2021/05/25 02:08:36;;;;;;;5.10;3.00;;;;;;;-144.99;97.71;52329.88;5070070;28;20223;-63
2021/05/25 02:11:07;;;;;;;3.17;2.30;;;;;;;-144.99;97.66;52272.81;5069834;28;20215;-63
2021/05/25 02:13:36;;;;;;;2.70;2.00;;;;;;;-144.99;97.84;52305.41;5069158;28;20221;-62
2021/05/25 02:16:06;;;;;;;4.57;2.77;;;;;;;-144.99;97.70;52329.88;5070724;28;20647;-61
2021/05/25 02:18:33;;;;;;;3.83;2.40;;;;;;;-144.99;97.76;52325.81;5067625;28;20235;-62
2021/05/25 02:21:01;;;;;;;2.27;1.57;;;;;;;-144.99;97.52;52303.38;5071141;28;20204;-61
2021/05/25 02:23:31;;;;;;;2.77;1.60;;;;;;;-144.99;97.58;52321.72;5068880;28;20201;-61
2021/05/25 02:25:58;;;;;;;2.73;1.60;;;;;;;-144.99;97.77;52336.00;5071049;28;20208;-62
2021/05/25 02:28:27;;;;;;;2.77;1.30;;;;;;;-144.99;98.05;52333.94;5070425;28;20224;-62
2021/05/25 02:30:54;;;;;;;1.97;1.17;;;;;;;-144.99;98.14;52293.19;5069279;28;20732;-62
2021/05/25 02:33:24;;;;;;;1.70;1.13;;;;;;;-144.99;98.20;52338.03;5067780;28;20208;-65
2021/05/25 02:35:52;;;;;;;1.83;1.53;;;;;;;-144.99;98.35;52329.88;5069975;28;20569;-66
2021/05/25 02:38:19;;;;;;;5.17;1.60;;;;;;;-144.99;98.26;52307.47;5068778;28;20428;-73
2021/05/25 02:40:46;;;;;;;2.40;1.80;;;;;;;-144.99;98.32;52317.66;5070192;28;20670;-74
2021/05/25 02:43:14;;;;;;;6.03;1.57;;;;;;;-144.99;98.19;52317.66;5069163;28;20217;-73
2021/05/25 02:45:40;;;;;;;3.63;1.20;;;;;;;-144.99;98.48;52344.16;5069905;28;20629;-73
2021/05/25 02:48:11;;;;;;;3.33;1.03;;;;;;;-144.99;98.31;52325.81;5072287;28;20231;-60
2021/05/25 02:50:44;;;;;;;3.67;1.77;;;;;;;-144.99;98.13;52346.19;5069686;28;20633;-62
2021/05/25 02:53:11;;;;;;;2.60;1.63;;;;;;;-144.99;97.95;52350.25;5069939;28;20207;-62
2021/05/25 02:55:41;;;;;;;3.13;1.67;;;;;;;-144.99;97.39;52303.38;5066296;28;20228;-61
2021/05/25 02:58:08;;;;;;;2.43;1.57;;;;;;;-144.99;97.39;52313.56;5069167;28;20232;-60
2021/05/25 03:00:39;;;;;;;2.27;1.13;;;;;;;-144.99;97.29;52264.66;5070159;28;20208;-63
2021/05/25 03:03:06;;;;;;;5.07;1.57;;;;;;;-144.99;97.31;52358.41;5069936;28;20214;-60
2021/05/25 03:05:35;;;;;;;3.90;1.50;;;;;;;-144.99;97.15;52354.34;5065586;28;20258;-61
2021/05/25 03:08:06;;;;;;;2.10;1.40;;;;;;;-144.99;97.03;52309.50;5066829;28;20228;-60
2021/05/25 03:10:34;;;;;;;2.70;1.37;;;;;;;-144.99;97.18;52346.19;5067779;28;20288;-62
2021/05/25 03:13:00;;;;;;;4.70;1.20;;;;;;;-144.99;97.25;52325.81;5068562;28;20206;-65
2021/05/25 03:15:28;;;;;;;3.27;1.90;;;;;;;-144.99;96.99;52313.56;5065206;28;20344;-64
2021/05/25 03:17:55;;;;;;;2.13;1.50;;;;;;;-144.99;96.85;52325.81;5069253;28;20267;-66
2021/05/25 03:20:22;;;;;;;1.77;1.57;;;;;;;-144.99;96.62;52321.72;5069695;28;20212;-66
2021/05/25 03:22:55;;;;;;;2.23;1.87;;;;;;;-144.99;96.61;52354.34;5068840;28;20201;-60
2021/05/25 03:25:24;;;;;;;3.23;1.50;;;;;;;-144.99;97.18;52344.16;5067900;28;20201;-60
2021/05/25 03:27:53;;;;;;;2.07;1.57;;;;;;;-144.99;96.90;52309.50;5061088;28;20224;-60
2021/05/25 03:30:22;;;;;;;2.23;1.67;;;;;;;-144.99;96.86;52340.06;5072225;28;20339;-60
2021/05/25 03:32:48;;;;;;;1.53;1.27;;;;;;;-144.99;96.84;52346.19;5065040;28;20227;-60
2021/05/25 03:35:20;;;;;;;4.00;1.70;;;;;;;-144.99;96.87;52305.41;5067327;28;20224;-60
2021/05/25 03:37:50;;;;;;;4.23;2.27;;;;;;;-144.99;96.77;52352.28;5060113;28;20225;-61
2021/05/25 03:40:20;;;;;;;3.27;2.00;;;;;;;-144.99;96.81;52313.56;5068847;28;20205;-61
2021/05/25 03:42:51;;;;;;;2.77;1.97;;;;;;;-144.99;96.31;52321.72;5068823;28;20924;-62
2021/05/25 03:45:24;;;;;;;2.90;2.33;;;;;;;-144.99;96.19;52309.50;5068128;28;20714;-61
2021/05/25 03:47:51;;;;;;;4.93;3.67;;;;;;;-144.99;96.24;52311.53;5068301;28;20256;-59
2021/05/25 03:50:21;;;;;;;3.03;2.23;;;;;;;-144.99;95.95;52338.03;5069116;28;20280;-61
2021/05/25 03:52:55;;;;;;;2.47;1.90;;;;;;;-144.99;94.50;52340.06;5068738;28;20848;-60
2021/05/25 03:55:37;;;;;;;3.57;2.53;;;;;;;-144.99;94.24;52301.34;5068194;28;20224;-61
2021/05/25 04:00:50;;;;;;;3.20;2.40;;;;;;;-144.99;93.45;52319.69;5068575;28;20200;-59
2021/05/25 04:03:19;;;;;;;4.00;2.40;;;;;;;-144.99;93.04;52301.34;5068892;28;20227;-59
2021/05/25 04:05:46;;;;;;;3.17;2.10;;;;;;;-144.99;92.77;52333.94;5068933;28;20303;-61
2021/05/25 04:08:13;;;;;;;4.27;2.27;;;;;;;-144.99;92.79;52348.22;5056834;28;20497;-61
2021/05/25 04:10:42;;;;;;;3.60;2.47;;;;;;;-144.99;92.56;52278.91;5067466;28;20295;-59
2021/05/25 04:13:08;;;;;;;4.10;2.57;;;;;;;-144.99;92.74;52325.81;5068091;28;20321;-60
2021/05/25 04:15:38;;;;;;;3.47;2.47;;;;;;;-144.99;92.69;52313.56;5068751;28;20312;-60
2021/05/25 04:18:05;;;;;;;4.00;2.40;;;;;;;-144.99;92.49;52333.94;5063954;28;20224;-60
2021/05/25 04:20:31;;;;;;;3.27;2.47;;;;;;;-144.99;92.45;52336.00;5068943;28;20215;-60
2021/05/25 04:22:58;;;;;;;1.77;1.57;;;;;;;-144.99;92.42;52305.41;5068991;28;20197;-60
2021/05/25 04:25:25;;;;;;;2.70;2.10;;;;;;;-144.99;92.33;52350.25;5069163;28;20231;-60
2021/05/25 04:27:54;;;;;;;3.07;1.93;;;;;;;-144.99;92.38;52309.50;5066639;28;20254;-60
2021/05/25 04:30:21;;;;;;;3.77;1.80;;;;;;;-144.99;92.55;52348.22;5067921;28;20228;-58
2021/05/25 04:32:50;;;;;;;2.47;2.10;;;;;;;-144.99;92.86;52301.34;5068649;28;20212;-60
2021/05/25 04:35:17;;;;;;;4.37;1.93;;;;;;;-144.99;92.53;52350.25;5072412;28;20706;-61
2021/05/25 04:37:46;;;;;;;3.57;2.47;;;;;;;-144.99;92.70;52311.53;5069435;28;20259;-61
2021/05/25 04:40:16;;;;;;;3.80;1.87;;;;;;;-144.99;92.58;52354.34;5072251;28;20212;-60
2021/05/25 04:42:49;;;;;;;3.00;1.97;;;;;;;-144.99;92.55;52378.78;5072233;28;20216;-60
2021/05/25 04:45:16;;;;;;;3.97;2.13;;;;;;;-144.99;92.70;52350.25;5072925;28;20205;-61
2021/05/25 04:47:42;;;;;;;3.00;2.50;;;;;;;-144.99;92.84;52325.81;5071080;28;20233;-60
2021/05/25 04:50:13;;;;;;;6.17;2.60;;;;;;;-144.99;92.93;52354.34;5068291;28;20209;-61
2021/05/25 04:52:40;;;;;;;7.27;3.00;;;;;;;-144.99;92.94;52366.56;5071556;28;20215;-59
2021/05/25 04:55:12;;;;;;;3.80;2.03;;;;;;;-144.99;93.30;52315.59;5072314;28;20229;-63
2021/05/25 04:57:41;;;;;;;4.47;2.73;;;;;;;-144.99;93.83;52309.50;5071726;28;20221;-62
2021/05/25 05:00:16;;;;;;;5.10;2.50;;;;;;;-144.99;94.56;52305.41;5068310;28;20436;-62
2021/05/25 05:02:42;;;;;;;4.27;2.93;;;;;;;-144.99;94.68;52338.03;5068319;28;20211;-62
2021/05/25 05:05:13;;;;;;;18.43;2.20;;;;;;;-144.99;94.94;52331.91;5074888;28;20655;-61
2021/05/25 05:07:42;;;;;;;4.07;2.57;;;;;;;-144.99;95.39;52350.25;5071101;28;20231;-61
2021/05/25 05:10:09;;;;;;;5.60;2.27;;;;;;;-144.99;95.51;52317.66;5071836;28;20291;-62
2021/05/25 05:12:38;;;;;;;5.50;2.10;;;;;;;-144.99;96.12;52317.66;5069452;28;20288;-62
2021/05/25 05:15:06;;;;;;;2.90;2.33;;;;;;;-144.99;96.91;52321.72;5071321;28;20311;-63
2021/05/25 05:17:36;;;;;;;8.00;2.73;;;;;;;-144.99;97.17;52309.50;5071138;28;20225;-62
2021/05/25 05:20:04;;;;;;;3.63;2.10;;;;;;;-144.99;97.65;52354.34;5071874;28;20215;-64
2021/05/25 05:22:30;;;;;;;4.50;2.00;;;;;;;-144.99;98.23;52342.09;5068846;28;20201;-62
2021/05/25 05:24:59;;;;;;;4.00;2.03;;;;;;;-144.99;98.72;52346.19;5065617;28;20205;-63
2021/05/25 05:27:30;;;;;;;4.90;2.17;;;;;;;-144.99;98.66;52346.19;5071153;28;20592;-63
2021/05/25 05:29:59;;;;;;;3.63;2.00;;;;;;;-144.99;98.85;52333.94;5073136;28;20204;-63
2021/05/25 05:32:28;;;;;;;5.60;2.37;;;;;;;-144.99;99.27;52309.50;5067538;28;20267;-64
2021/05/25 05:34:58;;;;;;;2.57;1.83;;;;;;;-144.99;99.31;52338.03;5071515;28;20311;-63
2021/05/25 05:37:27;;;;;;;6.77;2.10;;;;;;;-144.99;99.24;52333.94;5070741;28;20765;-63
2021/05/25 05:40:02;;;;;;;6.83;2.03;;;;;;;-144.99;99.22;52321.72;5071520;28;20242;-62
2021/05/25 05:42:33;;;;;;;7.23;2.70;;;;;;;-144.99;99.68;52350.25;5068938;28;20219;-64
2021/05/25 05:44:59;;;;;;;4.73;2.17;;;;;;;-144.99;99.28;52342.09;5072242;28;20580;-65
2021/05/25 05:47:31;;;;;;;3.03;2.43;;;;;;;-144.99;98.91;52317.66;5069002;28;20232;-65
2021/05/25 05:50:09;;;;;;;3.67;2.33;;;;;;;-144.99;98.86;52325.81;5070875;28;20201;-62
2021/05/25 05:52:35;;;;;;;2.23;1.80;;;;;;;-144.99;98.88;52333.94;5068312;28;20212;-64
2021/05/25 05:55:08;;;;;;;4.10;2.43;;;;;;;-144.99;98.90;52301.34;5070938;28;20249;-66
2021/05/25 05:57:35;;;;;;;2.77;2.30;;;;;;;-144.99;98.58;52346.19;5069650;28;20240;-63
2021/05/25 06:00:07;;;;;;;5.13;2.53;;;;;;;-144.99;98.49;52315.59;5071073;28;20232;-63
2021/05/25 06:02:33;;;;;;;2.87;2.30;;;;;;;-144.99;98.09;52313.56;5069780;28;20579;-64
2021/05/25 06:05:00;;;;;;;3.77;2.10;;;;;;;-144.99;98.06;52321.72;5066819;28;20201;-63
2021/05/25 06:07:26;;;;;;;2.57;2.37;;;;;;;-144.99;97.95;52370.63;5070101;28;20672;-63
2021/05/25 06:09:55;;;;;;;3.40;2.33;;;;;;;-144.99;98.02;52368.59;5070198;28;20216;-64
2021/05/25 06:12:24;;;;;;;3.70;2.47;;;;;;;-144.99;97.72;52376.75;5068443;28;20867;-64
2021/05/25 06:14:50;;;;;;;5.23;2.30;;;;;;;-144.99;97.01;52313.56;5068303;28;20306;-68
2021/05/25 06:17:16;;;;;;;4.13;2.27;;;;;;;-144.99;97.22;52309.50;5069716;28;20235;-69
2021/05/25 06:19:45;;;;;;;3.73;2.70;;;;;;;-144.99;96.72;52325.81;5071207;28;20690;-69
2021/05/25 06:22:12;;;;;;;2.87;2.47;;;;;;;-144.99;96.50;52346.19;5069680;28;20736;-70
2021/05/25 06:24:41;;;;;;;3.33;2.70;;;;;;;-144.99;96.56;52323.75;5069076;28;20292;-70
2021/05/25 06:27:07;;;;;;;6.83;3.13;;;;;;;-144.99;96.47;52336.00;5070896;28;20969;-69
2021/05/25 06:29:33;;;;;;;4.30;2.63;;;;;;;-144.99;96.07;52311.53;5071127;28;20212;-68
2021/05/25 06:32:02;;;;;;;6.23;2.87;;;;;;;-144.99;96.15;52301.34;5069227;28;20205;-68
2021/05/25 06:34:29;;;;;;;3.60;2.40;;;;;;;-144.99;95.20;52325.81;5069557;28;20311;-69
2021/05/25 06:36:55;;;;;;;4.90;2.63;;;;;;;-144.99;94.96;52331.91;5067947;28;20732;-68
2021/05/25 06:39:22;;;;;;;4.17;2.97;;;;;;;-144.99;95.46;52305.41;5071441;28;20215;-69
2021/05/25 06:41:51;;;;;;;4.37;2.97;;;;;;;-144.99;95.68;52317.66;5071466;28;20224;-68
2021/05/25 06:44:20;;;;;;;3.43;2.80;;;;;;;-144.99;95.81;52340.06;5068349;28;20293;-69
2021/05/25 06:46:52;;;;;;;4.03;3.30;;;;;;;-144.99;95.16;52333.94;5072949;28;20231;-69
2021/05/25 06:49:24;;;;;;;6.60;3.60;;;;;;;-144.99;95.34;52325.81;5069822;28;20694;-69
2021/05/25 06:51:53;;;;;;;3.37;3.03;;;;;;;-144.99;94.57;52315.59;5070727;28;20287;-68
2021/05/25 06:54:23;;;;;;;4.70;2.97;;;;;;;-144.99;95.00;52348.22;5068612;28;20241;-69
2021/05/25 06:56:52;;;;;;;4.97;2.93;;;;;;;-144.99;94.85;52325.81;5069765;28;20781;-71
2021/05/25 06:59:19;;;;;;;6.83;4.27;;;;;;;-144.99;93.91;52342.09;5070273;28;20293;-69
2021/05/25 07:01:46;;;;;;;6.60;4.03;;;;;;;-144.99;94.53;52313.56;5070751;28;20590;-69
2021/05/25 07:04:12;;;;;;;5.20;3.37;;;;;;;-144.99;94.81;52309.50;5068626;28;20212;-68
2021/05/25 07:06:44;;;;;;;4.50;2.77;;;;;;;-144.99;94.57;52344.16;5070033;28;20201;-67
2021/05/25 07:09:12;;;;;;;7.30;4.53;;;;;;;-144.99;94.34;52329.88;5067704;28;20284;-68
2021/05/25 07:11:42;;;;;;;6.73;4.23;;;;;;;-144.99;93.78;52338.03;5071361;28;20211;-68
2021/05/25 07:14:09;;;;;;;4.00;2.77;;;;;;;-144.99;94.15;52348.22;5070715;28;20240;-68
2021/05/25 07:16:36;;;;;;;2.87;2.53;;;;;;;-144.99;93.98;52309.50;5066539;28;20259;-67
2021/05/25 07:19:03;;;;;;;3.53;2.77;;;;;;;-144.99;91.77;52333.94;5073649;28;20200;-68
2021/05/25 07:21:32;;;;;;;13.73;5.77;;;;;;;-144.99;90.63;52327.84;5075535;28;20243;-68
2021/05/25 07:24:01;;;;;;;4.07;3.10;;;;;;;-144.99;89.92;52305.41;5078156;28;20197;-69
2021/05/25 07:26:27;;;;;;;3.80;3.40;;;;;;;-144.99;89.94;52327.84;5074884;28;20232;-68
2021/05/25 07:28:54;;;;;;;5.33;3.50;;;;;;;-144.99;90.88;52268.72;5070079;28;20200;-67
2021/05/25 07:31:21;;;;;;;4.43;3.50;;;;;;;-144.99;90.63;52321.72;5070617;28;20292;-67
2021/05/25 07:33:47;;;;;;;4.60;3.77;;;;;;;-144.99;90.46;52301.34;5070250;28;20235;-68
2021/05/25 07:36:13;;;;;;;4.30;3.57;;;;;;;-144.99;90.15;52321.72;5069412;28;20227;-69
2021/05/25 07:38:42;;;;;;;2.90;2.60;;;;;;;-144.99;89.69;52342.09;5069763;28;20662;-69
2021/05/25 07:41:11;;;;;;;3.70;3.40;;;;;;;-144.99;87.65;52321.72;5071117;28;20201;-71
2021/05/25 07:43:37;;;;;;;3.43;2.63;;;;;;;-144.99;88.17;52305.41;5069564;28;20299;-68
2021/05/25 07:46:07;;;;;;;4.13;3.27;;;;;;;-144.99;87.78;52323.75;5070922;28;20730;-67
2021/05/25 07:48:34;;;;;;;3.93;2.10;;;;;;;-144.99;86.00;52293.19;5068928;28;20308;-67
2021/05/25 07:51:00;;;;;;;4.77;2.37;;;;;;;-144.99;85.41;52317.66;5069925;28;20557;-68
2021/05/25 07:53:32;;;;;;;3.43;2.13;;;;;;;-144.99;84.86;52293.19;5069808;28;20349;-67
2021/05/25 07:56:01;;;;;;;4.43;1.97;;;;;;;-144.99;85.00;52317.66;5068745;28;20585;-68
2021/05/25 07:58:33;;;;;;;2.60;1.90;;;;;;;-144.99;84.27;52305.41;5069683;28;20316;-68
2021/05/25 08:00:59;;;;;;;3.03;2.17;;;;;;;-144.99;84.48;52313.56;5071224;28;20201;-68
2021/05/25 08:03:26;;;;;;;3.40;2.10;;;;;;;-144.99;82.36;52321.72;5070707;28;20682;-69
2021/05/25 08:05:57;;;;;;;2.47;1.77;;;;;;;-144.99;82.77;52317.66;5068776;28;20201;-68
2021/05/25 08:08:29;;;;;;;2.63;2.00;;;;;;;-144.99;83.76;52315.59;5068081;28;20250;-69
2021/05/25 08:11:01;;;;;;;2.27;1.50;;;;;;;-144.99;84.29;52342.09;5074352;28;20640;-68
2021/05/25 08:13:28;;;;;;;3.40;1.63;;;;;;;-144.99;84.91;52313.56;5073606;28;20262;-69
2021/05/25 08:15:55;;;;;;;6.00;2.23;;;;;;;-144.99;83.74;52354.34;5073291;28;20266;-68
2021/05/25 08:18:39;;;;;;;2.00;1.47;;;;;;;-144.99;83.86;52321.72;5070422;28;20225;-68
2021/05/25 08:21:12;;;;;;;1.57;1.23;;;;;;;-144.99;84.03;52311.53;5073849;28;20338;-68
2021/05/25 08:23:38;;;;;;;5.23;2.30;;;;;;;-144.99;84.66;52333.94;5073194;28;20291;-68
2021/05/25 08:26:05;;;;;;;1.77;1.50;;;;;;;-144.99;85.43;52319.69;5074477;28;20208;-68
2021/05/25 08:28:31;;;;;;;1.67;1.20;;;;;;;-144.99;85.37;52350.25;5071995;28;20225;-69
2021/05/25 08:30:58;;;;;;;5.93;3.20;;;;;;;-144.99;85.78;52325.81;5073503;28;20196;-69
2021/05/25 08:33:24;;;;;;;4.57;1.70;;;;;;;-144.99;85.59;52362.50;5073168;28;20204;-68
2021/05/25 08:35:54;;;;;;;4.27;1.63;;;;;;;-144.99;85.29;52325.81;5073392;28;20756;-69
2021/05/25 08:38:24;;;;;;;3.30;1.67;;;;;;;-144.99;85.06;52285.03;5067668;28;20239;-68
2021/05/25 08:40:53;;;;;;;1.13;0.83;;;;;;;-144.99;84.60;52350.25;5065956;28;20710;-70
2021/05/25 08:43:20;;;;;;;2.93;1.37;;;;;;;-144.99;84.75;52366.56;5073630;28;20224;-67
2021/05/25 08:45:46;;;;;;;2.53;1.30;;;;;;;-144.99;83.89;52305.41;5075520;28;20197;-67
2021/05/25 08:48:12;;;;;;;2.30;1.77;;;;;;;-144.99;84.01;52305.41;5070888;28;20240;-69
2021/05/25 08:50:39;;;;;;;1.80;1.23;;;;;;;-144.99;82.60;52289.13;5072975;28;20208;-68
2021/05/25 08:53:06;;;;;;;2.30;1.60;;;;;;;-144.99;82.02;52293.19;5073162;28;20209;-68
2021/05/25 08:55:38;;;;;;;2.83;1.80;;;;;;;-144.99;80.00;52317.66;5071942;28;20665;-68
2021/05/25 08:58:06;;;;;;;1.43;1.20;;;;;;;-144.99;80.72;52293.19;5072453;28;20252;-69
2021/05/25 09:00:33;;;;;;;2.93;1.90;;;;;;;-144.99;79.43;52301.34;5072966;28;20197;-68
2021/05/25 09:03:05;;;;;;;2.43;1.60;;;;;;;-144.99;79.59;52297.25;5072246;28;20681;-68
2021/05/25 09:05:32;;;;;;;1.97;1.67;;;;;;;-144.99;79.47;52289.13;5070743;28;20284;-66
2021/05/25 09:08:01;;;;;;;3.23;1.80;;;;;;;-144.99;79.35;52301.34;5060916;28;20248;-68
2021/05/25 09:10:39;;;;;;;4.37;2.27;;;;;;;-144.99;79.40;52378.78;5070232;28;20621;-69
2021/05/25 09:13:16;;;;;;;4.07;3.67;;;;;;;-144.99;78.88;52327.84;5073069;28;20205;-68
2021/05/25 09:15:45;;;;;;;4.87;2.07;;;;;;;-144.99;78.88;52321.72;5071606;28;20315;-68
2021/05/25 09:18:15;;;;;;;2.97;2.10;;;;;;;-144.99;82.16;52315.59;5070453;28;20221;-68
2021/05/25 09:20:51;;;;;;;3.13;1.90;;;;;;;-144.99;84.09;52305.41;5071994;28;20288;-69
2021/05/25 09:23:20;;;;;;;5.30;2.80;;;;;;;-144.99;85.10;52313.56;5071822;28;20216;-68
2021/05/25 09:25:54;;;;;;;5.57;2.33;;;;;;;-144.99;87.02;52333.94;5070488;28;20205;-68
2021/05/25 09:28:21;;;;;;;2.30;2.10;;;;;;;-144.99;89.46;52350.25;5070386;28;20290;-69
2021/05/25 09:30:51;;;;;;;5.03;2.53;;;;;;;-144.99;90.42;52333.94;5072230;28;20209;-68
2021/05/25 09:33:18;;;;;;;2.87;2.37;;;;;;;-144.99;92.79;52321.72;5071565;28;20248;-68
2021/05/25 09:35:53;;;;;;;3.23;2.50;;;;;;;-144.99;91.91;52301.34;5072019;28;20311;-68
2021/05/25 09:38:21;;;;;;;5.10;3.63;;;;;;;-144.99;94.22;52356.38;5061890;28;20226;-68
2021/05/25 09:40:52;;;;;;;4.43;2.80;;;;;;;-144.99;93.70;52313.56;5070820;28;20216;-68
2021/05/25 09:43:23;;;;;;;5.60;3.10;;;;;;;-144.99;92.86;52329.88;5064944;28;20223;-68
2021/05/25 09:46:00;;;;;;;8.30;3.97;;;;;;;-144.99;94.20;52329.88;5071510;28;20266;-68
2021/05/25 09:48:31;;;;;;;7.90;4.10;;;;;;;-144.99;92.29;52338.03;5070017;28;20591;-70
2021/05/25 09:50:57;;;;;;;6.37;3.73;;;;;;;-144.99;91.35;52358.41;5065608;28;20239;-68
2021/05/25 09:53:31;;;;;;;5.03;3.47;;;;;;;-144.99;92.26;52293.19;5068645;28;20200;-69
2021/05/25 09:55:58;;;;;;;7.83;4.47;;;;;;;-144.99;92.03;52329.88;5068797;28;20292;-69
2021/05/25 09:58:41;;;;;;;7.90;4.20;;;;;;;-144.99;91.23;52297.25;5069669;28;20224;-68
2021/05/25 10:01:09;;;;;;;6.27;2.60;;;;;;;-144.99;91.61;52319.69;5068191;28;20282;-68
2021/05/25 10:03:43;;;;;;;4.27;3.27;;;;;;;-144.99;91.67;52305.41;5071222;28;20248;-68
2021/05/25 10:06:10;;;;;;;3.87;2.93;;;;;;;-144.99;91.30;52309.50;5072008;28;20562;-68
2021/05/25 10:08:37;;;;;;;6.40;2.93;;;;;;;-144.99;90.72;52325.81;5069554;28;20248;-68
2021/05/25 10:11:07;;;;;;;5.97;3.97;;;;;;;-144.99;90.30;52268.72;5066258;28;20652;-68
2021/05/25 10:13:34;;;;;;;4.33;3.63;;;;;;;-144.99;89.20;52276.88;5069738;28;20268;-69
2021/05/25 10:16:10;;;;;;;5.27;3.77;;;;;;;-144.99;88.39;52268.72;5069844;28;20699;-72
2021/05/25 10:18:50;;;;;;;3.53;2.40;;;;;;;-144.99;84.17;52264.66;5069064;28;20235;-68
2021/05/25 10:21:19;;;;;;;6.03;2.07;;;;;;;-144.99;82.54;52317.66;5067720;28;20215;-69
2021/05/25 10:23:45;;;;;;;3.00;2.10;;;;;;;-144.99;82.97;52276.88;5064864;28;20202;-69
2021/05/25 10:26:19;;;;;;;2.60;1.33;;;;;;;-144.99;76.43;52264.66;5067881;28;20667;-68
2021/05/25 10:28:50;;;;;;;2.87;1.57;;;;;;;-144.99;75.83;52299.31;5067678;28;20228;-69
2021/05/25 10:31:28;;;;;;;1.87;1.33;;;;;;;-144.99;74.85;52285.03;5063686;28;20205;-68
2021/05/25 10:34:15;;;;;;;0.97;0.93;;;;;;;-144.99;76.33;52317.66;5065759;28;20232;-69
2021/05/25 10:36:43;;;;;;;1.87;1.30;;;;;;;-144.99;78.81;52301.34;5069748;28;20313;-69
2021/05/25 10:39:28;;;;;;;1.53;1.27;;;;;;;-144.99;81.94;52305.41;5071412;28;20314;-69
2021/05/25 10:42:25;;;;;;;1.53;1.00;;;;;;;-144.99;84.71;52323.75;5075206;28;20570;-68
2021/05/25 10:44:56;;;;;;;2.17;1.50;;;;;;;-144.99;85.53;52283.00;5074679;28;20205;-69
2021/05/25 10:47:28;;;;;;;1.73;1.13;;;;;;;-144.99;85.27;52309.50;5075491;28;20221;-68
2021/05/25 10:49:57;;;;;;;1.97;0.90;;;;;;;-144.99;85.17;52321.72;5068541;28;20299;-68
2021/05/25 10:52:23;;;;;;;1.03;0.93;;;;;;;-144.99;84.03;52354.34;5069093;28;20682;-68
2021/05/25 10:54:58;;;;;;;2.93;1.30;;;;;;;-144.99;84.65;52333.94;5066284;28;20292;-68
2021/05/25 10:57:52;;;;;;;2.63;1.53;;;;;;;-144.99;83.79;52323.75;5069468;28;20260;-68
2021/05/25 11:00:34;;;;;;;2.70;1.90;;;;;;;-144.99;83.52;52309.50;5070751;28;20263;-68
2021/05/25 11:03:03;;;;;;;2.77;1.20;;;;;;;-144.99;84.20;52297.25;5058464;28;20671;-70
2021/05/25 11:06:00;;;;;;;5.17;3.13;;;;;;;-144.99;81.57;52301.34;5072472;28;20205;-69
2021/05/25 11:08:43;;;;;;;2.30;1.13;;;;;;;-144.99;82.32;52311.53;5069483;28;20791;-68
2021/05/25 11:11:12;;;;;;;2.13;1.00;;;;;;;-144.99;81.70;52264.66;5069735;28;20211;-70
2021/05/25 11:13:48;;;;;;;3.90;1.77;;;;;;;-144.99;79.83;52293.19;5070051;28;20200;-67
2021/05/25 11:16:20;;;;;;;2.20;1.53;;;;;;;-144.99;79.85;52285.03;5070558;28;20729;-67
2021/05/25 11:18:58;;;;;;;3.07;1.90;;;;;;;-144.99;79.46;52238.16;5070934;28;20217;-69
2021/05/25 11:22:16;;;;;;;4.50;2.23;;;;;;;-144.99;75.56;52236.13;5069370;28;20708;-69
2021/05/25 11:25:05;;;;;;;3.43;1.63;;;;;;;-144.99;72.33;52179.06;5069104;28;20295;-69
2021/05/25 11:27:42;;;;;;;12.43;6.90;;;;;;;-144.99;71.80;52221.84;5069985;28;20658;-68
2021/05/25 11:30:28;;;;;;;3.43;2.63;;;;;;;-144.99;69.80;52199.44;5068055;28;20430;-69